sensor_id;sensor_type;location;lat;lon;timestamp;pressure;altitude;pressure_sealevel;temperature;humidity
79415;BME280;68864;44.972;19.612;2023-10-31T00:01:32;100076.31;;;14.57;55.59
79415;BME280;68864;44.972;19.612;2023-10-31T00:03:59;100069.13;;;14.52;55.57
79415;BME280;68864;44.972;19.612;2023-10-31T00:06:26;100063.50;;;14.56;55.31
79415;BME280;68864;44.972;19.612;2023-10-31T00:08:53;100072.69;;;14.63;55.24
79415;BME280;68864;44.972;19.612;2023-10-31T00:11:20;100062.69;;;14.59;54.89
79415;BME280;68864;44.972;19.612;2023-10-31T00:13:46;100063.09;;;14.57;54.96
79415;BME280;68864;44.972;19.612;2023-10-31T00:16:13;100063.09;;;14.54;54.79
79415;BME280;68864;44.972;19.612;2023-10-31T00:18:41;100064.28;;;14.56;54.71
79415;BME280;68864;44.972;19.612;2023-10-31T00:21:08;100055.91;;;14.46;54.38
79415;BME280;68864;44.972;19.612;2023-10-31T00:23:42;100067.50;;;14.55;53.95
79415;BME280;68864;44.972;19.612;2023-10-31T00:26:09;100074.72;;;14.56;54.26
79415;BME280;68864;44.972;19.612;2023-10-31T00:28:36;100068.72;;;14.54;54.30
79415;BME280;68864;44.972;19.612;2023-10-31T00:31:03;100071.94;;;14.56;54.44
79415;BME280;68864;44.972;19.612;2023-10-31T00:33:30;100070.72;;;14.60;54.26
79415;BME280;68864;44.972;19.612;2023-10-31T00:35:58;100060.28;;;14.64;53.76
79415;BME280;68864;44.972;19.612;2023-10-31T00:38:25;100069.91;;;14.60;54.13
79415;BME280;68864;44.972;19.612;2023-10-31T00:40:52;100057.09;;;14.59;53.79
79415;BME280;68864;44.972;19.612;2023-10-31T00:43:19;100065.88;;;14.68;53.86
79415;BME280;68864;44.972;19.612;2023-10-31T00:45:45;100064.28;;;14.74;54.07
79415;BME280;68864;44.972;19.612;2023-10-31T00:48:12;100053.06;;;14.74;54.21
79415;BME280;68864;44.972;19.612;2023-10-31T00:50:39;100053.84;;;14.75;54.13
79415;BME280;68864;44.972;19.612;2023-10-31T00:53:08;100039.41;;;14.80;54.02
79415;BME280;68864;44.972;19.612;2023-10-31T00:55:34;100023.81;;;14.68;54.52
79415;BME280;68864;44.972;19.612;2023-10-31T00:58:01;100056.63;;;14.78;54.59
79415;BME280;68864;44.972;19.612;2023-10-31T01:00:28;100041.03;;;14.70;54.52
79415;BME280;68864;44.972;19.612;2023-10-31T01:02:55;100054.25;;;14.73;54.74
79415;BME280;68864;44.972;19.612;2023-10-31T01:05:22;100045.03;;;14.65;54.83
79415;BME280;68864;44.972;19.612;2023-10-31T01:07:48;100039.84;;;14.67;54.86
79415;BME280;68864;44.972;19.612;2023-10-31T01:10:17;100030.63;;;14.63;54.76
79415;BME280;68864;44.972;19.612;2023-10-31T01:12:43;100030.59;;;14.70;54.54
79415;BME280;68864;44.972;19.612;2023-10-31T01:15:10;100025.78;;;14.78;54.52
79415;BME280;68864;44.972;19.612;2023-10-31T01:17:37;100024.94;;;14.85;54.21
79415;BME280;68864;44.972;19.612;2023-10-31T01:20:05;100019.75;;;14.80;54.07
79415;BME280;68864;44.972;19.612;2023-10-31T01:22:32;100011.72;;;14.89;54.02
79415;BME280;68864;44.972;19.612;2023-10-31T01:24:59;99991.28;;;14.85;53.79
79415;BME280;68864;44.972;19.612;2023-10-31T01:27:27;99980.47;;;14.83;53.71
79415;BME280;68864;44.972;19.612;2023-10-31T01:29:54;99995.28;;;14.94;53.42
79415;BME280;68864;44.972;19.612;2023-10-31T01:32:21;99982.03;;;14.91;53.75
79415;BME280;68864;44.972;19.612;2023-10-31T01:34:48;99979.22;;;14.91;53.38
79415;BME280;68864;44.972;19.612;2023-10-31T01:37:15;99976.81;;;14.90;53.66
79415;BME280;68864;44.972;19.612;2023-10-31T01:39:44;99960.03;;;14.83;53.39
79415;BME280;68864;44.972;19.612;2023-10-31T01:42:13;99987.66;;;14.95;53.17
79415;BME280;68864;44.972;19.612;2023-10-31T01:44:41;99985.66;;;14.95;53.36
79415;BME280;68864;44.972;19.612;2023-10-31T01:47:08;99972.41;;;14.92;53.11
79415;BME280;68864;44.972;19.612;2023-10-31T01:49:35;99957.63;;;14.88;53.49
79415;BME280;68864;44.972;19.612;2023-10-31T01:52:03;99946.34;;;14.92;53.54
79415;BME280;68864;44.972;19.612;2023-10-31T01:54:32;99935.94;;;14.92;53.20
79415;BME280;68864;44.972;19.612;2023-10-31T01:56:59;99874.75;;;14.66;53.21
79415;BME280;68864;44.972;19.612;2023-10-31T01:59:27;99903.50;;;14.84;53.39
79415;BME280;68864;44.972;19.612;2023-10-31T02:01:56;99917.47;;;14.98;53.39
79415;BME280;68864;44.972;19.612;2023-10-31T02:04:23;99915.84;;;15.01;53.17
79415;BME280;68864;44.972;19.612;2023-10-31T02:06:50;99913.09;;;14.90;53.41
79415;BME280;68864;44.972;19.612;2023-10-31T02:09:17;99900.66;;;14.95;53.28
79415;BME280;68864;44.972;19.612;2023-10-31T02:11:44;99904.66;;;14.94;53.18
79415;BME280;68864;44.972;19.612;2023-10-31T02:14:10;99901.81;;;14.97;53.33
79415;BME280;68864;44.972;19.612;2023-10-31T02:16:37;99892.66;;;14.93;53.44
79415;BME280;68864;44.972;19.612;2023-10-31T02:19:06;99887.47;;;14.88;53.23
79415;BME280;68864;44.972;19.612;2023-10-31T02:21:33;99900.22;;;14.96;53.39
79415;BME280;68864;44.972;19.612;2023-10-31T02:24:03;99913.47;;;14.96;53.13
79415;BME280;68864;44.972;19.612;2023-10-31T02:26:30;99915.09;;;14.93;53.39
79415;BME280;68864;44.972;19.612;2023-10-31T02:28:57;99931.91;;;15.00;52.91
79415;BME280;68864;44.972;19.612;2023-10-31T02:31:23;99939.91;;;14.98;52.87
79415;BME280;68864;44.972;19.612;2023-10-31T02:33:49;99915.47;;;14.99;52.81
79415;BME280;68864;44.972;19.612;2023-10-31T02:36:16;99917.06;;;14.96;52.83
79415;BME280;68864;44.972;19.612;2023-10-31T02:38:43;99935.50;;;14.97;52.79
79415;BME280;68864;44.972;19.612;2023-10-31T02:41:12;99951.13;;;15.02;52.57
79415;BME280;68864;44.972;19.612;2023-10-31T02:43:40;99933.16;;;14.89;52.64
79415;BME280;68864;44.972;19.612;2023-10-31T02:46:07;99953.13;;;15.01;52.87
79415;BME280;68864;44.972;19.612;2023-10-31T02:48:35;99961.59;;;14.94;53.08
79415;BME280;68864;44.972;19.612;2023-10-31T02:51:05;99966.38;;;14.97;53.17
79415;BME280;68864;44.972;19.612;2023-10-31T02:53:32;99941.91;;;14.98;52.98
79415;BME280;68864;44.972;19.612;2023-10-31T02:55:59;99933.91;;;14.96;53.12
79415;BME280;68864;44.972;19.612;2023-10-31T02:58:27;99944.75;;;14.94;53.21
79415;BME280;68864;44.972;19.612;2023-10-31T03:00:54;99964.78;;;14.96;53.03
79415;BME280;68864;44.972;19.612;2023-10-31T03:03:21;99950.38;;;14.94;52.97
79415;BME280;68864;44.972;19.612;2023-10-31T03:05:48;99952.75;;;14.99;53.15
79415;BME280;68864;44.972;19.612;2023-10-31T03:08:14;99933.09;;;14.99;52.98
79415;BME280;68864;44.972;19.612;2023-10-31T03:10:46;99938.28;;;15.04;52.80
79415;BME280;68864;44.972;19.612;2023-10-31T03:13:15;99939.06;;;15.08;52.71
79415;BME280;68864;44.972;19.612;2023-10-31T03:15:43;99931.03;;;15.10;52.51
79415;BME280;68864;44.972;19.612;2023-10-31T03:18:10;99936.22;;;15.12;52.47
79415;BME280;68864;44.972;19.612;2023-10-31T03:20:37;99925.44;;;15.03;52.51
79415;BME280;68864;44.972;19.612;2023-10-31T03:23:03;99921.78;;;15.14;52.41
79415;BME280;68864;44.972;19.612;2023-10-31T03:25:30;99929.00;;;15.15;52.58
79415;BME280;68864;44.972;19.612;2023-10-31T03:27:57;99931.81;;;15.15;52.61
79415;BME280;68864;44.972;19.612;2023-10-31T03:30:24;99918.19;;;15.13;52.53
79415;BME280;68864;44.972;19.612;2023-10-31T03:32:52;99915.75;;;15.19;52.46
79415;BME280;68864;44.972;19.612;2023-10-31T03:35:19;99909.38;;;15.15;52.85
79415;BME280;68864;44.972;19.612;2023-10-31T03:37:46;99910.16;;;15.11;52.68
79415;BME280;68864;44.972;19.612;2023-10-31T03:40:13;99926.22;;;15.11;53.02
79415;BME280;68864;44.972;19.612;2023-10-31T03:42:40;99918.19;;;15.13;53.05
79415;BME280;68864;44.972;19.612;2023-10-31T03:45:07;99917.44;;;15.05;52.87
79415;BME280;68864;44.972;19.612;2023-10-31T03:47:34;99928.16;;;15.18;52.80
79415;BME280;68864;44.972;19.612;2023-10-31T03:50:03;99927.78;;;15.19;52.90
79415;BME280;68864;44.972;19.612;2023-10-31T03:52:29;99919.78;;;15.14;53.20
79415;BME280;68864;44.972;19.612;2023-10-31T03:54:56;99926.97;;;15.19;53.09
79415;BME280;68864;44.972;19.612;2023-10-31T03:57:23;99911.31;;;15.18;52.96
79415;BME280;68864;44.972;19.612;2023-10-31T03:59:50;99917.34;;;15.20;53.11
79415;BME280;68864;44.972;19.612;2023-10-31T04:02:17;99908.47;;;15.25;52.83
79415;BME280;68864;44.972;19.612;2023-10-31T04:04:43;99902.88;;;15.25;52.95
79415;BME280;68864;44.972;19.612;2023-10-31T04:07:12;99924.53;;;15.24;53.02
79415;BME280;68864;44.972;19.612;2023-10-31T04:09:38;99894.03;;;15.23;53.22
79415;BME280;68864;44.972;19.612;2023-10-31T04:12:05;99923.34;;;15.22;53.30
79415;BME280;68864;44.972;19.612;2023-10-31T04:14:32;99916.16;;;15.17;53.47
79415;BME280;68864;44.972;19.612;2023-10-31T04:16:59;99901.31;;;15.17;53.02
79415;BME280;68864;44.972;19.612;2023-10-31T04:19:26;99902.53;;;15.16;53.12
79415;BME280;68864;44.972;19.612;2023-10-31T04:21:53;99920.09;;;15.27;53.27
79415;BME280;68864;44.972;19.612;2023-10-31T04:24:21;99892.44;;;15.29;53.21
79415;BME280;68864;44.972;19.612;2023-10-31T04:26:48;99884.38;;;15.31;53.12
79415;BME280;68864;44.972;19.612;2023-10-31T04:29:15;99904.44;;;15.29;53.06
79415;BME280;68864;44.972;19.612;2023-10-31T04:31:41;99895.59;;;15.31;52.78
79415;BME280;68864;44.972;19.612;2023-10-31T04:34:08;99894.44;;;15.25;52.98
79415;BME280;68864;44.972;19.612;2023-10-31T04:36:35;99885.22;;;15.28;52.71
79415;BME280;68864;44.972;19.612;2023-10-31T04:39:02;99881.19;;;15.25;52.63
79415;BME280;68864;44.972;19.612;2023-10-31T04:41:33;99882.72;;;15.37;52.03
79415;BME280;68864;44.972;19.612;2023-10-31T04:43:59;99875.94;;;15.34;51.69
79415;BME280;68864;44.972;19.612;2023-10-31T04:46:26;99891.50;;;15.42;51.79
79415;BME280;68864;44.972;19.612;2023-10-31T04:48:53;99881.00;;;15.50;51.37
79415;BME280;68864;44.972;19.612;2023-10-31T04:51:20;99875.34;;;15.57;50.97
79415;BME280;68864;44.972;19.612;2023-10-31T04:53:47;99882.56;;;15.58;50.63
79415;BME280;68864;44.972;19.612;2023-10-31T04:56:14;99889.75;;;15.66;50.42
79415;BME280;68864;44.972;19.612;2023-10-31T04:58:43;99907.34;;;15.70;50.13
79415;BME280;68864;44.972;19.612;2023-10-31T05:01:11;99900.47;;;15.78;49.72
79415;BME280;68864;44.972;19.612;2023-10-31T05:03:38;99847.13;;;15.75;49.69
79415;BME280;68864;44.972;19.612;2023-10-31T05:06:06;99883.94;;;15.84;49.69
79415;BME280;68864;44.972;19.612;2023-10-31T05:08:32;99906.94;;;15.75;49.72
79415;BME280;68864;44.972;19.612;2023-10-31T05:10:59;99876.84;;;15.72;49.47
79415;BME280;68864;44.972;19.612;2023-10-31T05:13:26;99892.31;;;15.91;48.74
79415;BME280;68864;44.972;19.612;2023-10-31T05:15:54;99893.84;;;15.96;48.42
79415;BME280;68864;44.972;19.612;2023-10-31T05:18:21;99884.59;;;15.99;48.55
79415;BME280;68864;44.972;19.612;2023-10-31T05:20:49;99880.66;;;15.93;48.58
79415;BME280;68864;44.972;19.612;2023-10-31T05:23:15;99905.47;;;16.01;49.00
79415;BME280;68864;44.972;19.612;2023-10-31T05:25:42;99905.81;;;16.07;48.49
79415;BME280;68864;44.972;19.612;2023-10-31T05:28:09;99895.72;;;16.13;48.24
79415;BME280;68864;44.972;19.612;2023-10-31T05:30:36;99875.63;;;16.14;48.40
79415;BME280;68864;44.972;19.612;2023-10-31T05:33:04;99870.03;;;16.11;48.62
79415;BME280;68864;44.972;19.612;2023-10-31T05:35:31;99873.59;;;16.15;48.64
79415;BME280;68864;44.972;19.612;2023-10-31T05:37:57;99863.19;;;16.12;48.95
79415;BME280;68864;44.972;19.612;2023-10-31T05:40:24;99862.03;;;16.06;49.41
79415;BME280;68864;44.972;19.612;2023-10-31T05:42:52;99879.81;;;15.96;49.76
79415;BME280;68864;44.972;19.612;2023-10-31T05:45:19;99856.09;;;15.97;49.77
79415;BME280;68864;44.972;19.612;2023-10-31T05:47:46;99860.13;;;15.96;49.76
79415;BME280;68864;44.972;19.612;2023-10-31T05:50:15;99849.28;;;15.98;49.89
79415;BME280;68864;44.972;19.612;2023-10-31T05:52:42;99857.72;;;15.98;49.60
79415;BME280;68864;44.972;19.612;2023-10-31T05:55:09;99840.47;;;15.96;49.44
79415;BME280;68864;44.972;19.612;2023-10-31T05:57:35;99855.69;;;16.02;49.20
79415;BME280;68864;44.972;19.612;2023-10-31T06:00:02;99849.19;;;16.05;48.90
79415;BME280;68864;44.972;19.612;2023-10-31T06:02:29;99858.78;;;16.11;48.15
79415;BME280;68864;44.972;19.612;2023-10-31T06:04:56;99849.13;;;16.12;48.29
79415;BME280;68864;44.972;19.612;2023-10-31T06:07:24;99861.16;;;16.12;47.86
79415;BME280;68864;44.972;19.612;2023-10-31T06:09:51;99869.13;;;16.21;47.70
79415;BME280;68864;44.972;19.612;2023-10-31T06:12:18;99867.53;;;16.20;47.39
79415;BME280;68864;44.972;19.612;2023-10-31T06:14:45;99857.44;;;16.22;47.33
79415;BME280;68864;44.972;19.612;2023-10-31T06:17:11;99864.91;;;16.36;47.53
79415;BME280;68864;44.972;19.612;2023-10-31T06:19:38;99851.38;;;16.27;47.48
79415;BME280;68864;44.972;19.612;2023-10-31T06:22:10;99840.53;;;16.26;47.94
79415;BME280;68864;44.972;19.612;2023-10-31T06:24:39;99849.72;;;16.30;48.41
79415;BME280;68864;44.972;19.612;2023-10-31T06:27:06;99842.47;;;16.33;48.37
79415;BME280;68864;44.972;19.612;2023-10-31T06:29:33;99839.59;;;16.36;47.44
79415;BME280;68864;44.972;19.612;2023-10-31T06:32:00;99820.25;;;16.42;46.81
79415;BME280;68864;44.972;19.612;2023-10-31T06:34:27;99836.19;;;16.52;46.38
79415;BME280;68864;44.972;19.612;2023-10-31T06:36:54;99839.69;;;16.59;46.06
79415;BME280;68864;44.972;19.612;2023-10-31T06:39:21;99828.00;;;16.64;46.23
79415;BME280;68864;44.972;19.612;2023-10-31T06:41:50;99837.16;;;16.72;45.73
79415;BME280;68864;44.972;19.612;2023-10-31T06:44:20;99822.59;;;16.77;45.13
79415;BME280;68864;44.972;19.612;2023-10-31T06:46:47;99825.38;;;16.81;45.37
79415;BME280;68864;44.972;19.612;2023-10-31T06:49:14;99825.72;;;16.83;45.07
79415;BME280;68864;44.972;19.612;2023-10-31T06:51:40;99838.16;;;16.85;44.92
79415;BME280;68864;44.972;19.612;2023-10-31T06:54:07;99827.72;;;16.86;44.99
79415;BME280;68864;44.972;19.612;2023-10-31T06:56:34;99839.75;;;16.86;45.02
79415;BME280;68864;44.972;19.612;2023-10-31T06:59:02;99830.63;;;16.79;44.88
79415;BME280;68864;44.972;19.612;2023-10-31T07:01:30;99838.56;;;16.87;44.65
79415;BME280;68864;44.972;19.612;2023-10-31T07:03:57;99850.81;;;17.00;43.46
79415;BME280;68864;44.972;19.612;2023-10-31T07:06:23;99877.97;;;17.14;42.78
79415;BME280;68864;44.972;19.612;2023-10-31T07:08:50;99882.63;;;17.24;42.11
79415;BME280;68864;44.972;19.612;2023-10-31T07:11:17;99874.94;;;17.28;41.44
79415;BME280;68864;44.972;19.612;2023-10-31T07:13:44;99883.94;;;17.43;41.17
79415;BME280;68864;44.972;19.612;2023-10-31T07:16:12;99880.44;;;17.62;40.99
79415;BME280;68864;44.972;19.612;2023-10-31T07:18:39;99893.47;;;17.76;40.56
79415;BME280;68864;44.972;19.612;2023-10-31T07:21:06;99886.47;;;17.88;40.01
79415;BME280;68864;44.972;19.612;2023-10-31T07:23:33;99894.28;;;18.00;39.85
79415;BME280;68864;44.972;19.612;2023-10-31T07:26:00;99898.94;;;18.10;39.77
79415;BME280;68864;44.972;19.612;2023-10-31T07:28:26;99876.06;;;18.04;39.89
79415;BME280;68864;44.972;19.612;2023-10-31T07:30:53;99864.44;;;18.22;39.56
79415;BME280;68864;44.972;19.612;2023-10-31T07:33:21;99877.97;;;18.31;39.09
79415;BME280;68864;44.972;19.612;2023-10-31T07:35:48;99897.59;;;18.38;39.21
79415;BME280;68864;44.972;19.612;2023-10-31T07:38:15;99888.84;;;18.52;39.30
79415;BME280;68864;44.972;19.612;2023-10-31T07:40:42;99884.31;;;18.58;38.76
79415;BME280;68864;44.972;19.612;2023-10-31T07:43:08;99878.00;;;18.70;38.86
79415;BME280;68864;44.972;19.612;2023-10-31T07:45:35;99880.63;;;18.81;38.63
79415;BME280;68864;44.972;19.612;2023-10-31T07:48:02;99874.00;;;18.87;38.19
79415;BME280;68864;44.972;19.612;2023-10-31T07:50:31;99880.91;;;19.02;37.58
79415;BME280;68864;44.972;19.612;2023-10-31T07:52:57;99866.19;;;19.11;37.13
79415;BME280;68864;44.972;19.612;2023-10-31T07:55:25;99864.63;;;19.26;37.25
79415;BME280;68864;44.972;19.612;2023-10-31T07:57:51;99854.03;;;19.30;37.13
79415;BME280;68864;44.972;19.612;2023-10-31T08:00:19;99860.47;;;19.31;37.15
79415;BME280;68864;44.972;19.612;2023-10-31T08:02:47;99855.44;;;19.22;37.45
79415;BME280;68864;44.972;19.612;2023-10-31T08:05:14;99846.69;;;19.17;37.54
79415;BME280;68864;44.972;19.612;2023-10-31T08:07:42;99871.41;;;19.13;37.49
79415;BME280;68864;44.972;19.612;2023-10-31T08:10:10;99847.22;;;19.12;37.31
79415;BME280;68864;44.972;19.612;2023-10-31T08:12:37;99850.75;;;19.16;37.15
79415;BME280;68864;44.972;19.612;2023-10-31T08:15:04;99845.47;;;19.18;37.03
79415;BME280;68864;44.972;19.612;2023-10-31T08:17:31;99840.59;;;19.18;37.34
79415;BME280;68864;44.972;19.612;2023-10-31T08:19:58;99833.88;;;19.12;36.79
79415;BME280;68864;44.972;19.612;2023-10-31T08:22:24;99832.56;;;19.17;37.08
79415;BME280;68864;44.972;19.612;2023-10-31T08:24:53;99819.50;;;19.07;37.37
79415;BME280;68864;44.972;19.612;2023-10-31T08:27:19;99803.41;;;19.03;37.45
79415;BME280;68864;44.972;19.612;2023-10-31T08:29:46;99786.91;;;19.02;37.37
79415;BME280;68864;44.972;19.612;2023-10-31T08:32:13;99777.94;;;19.07;37.85
79415;BME280;68864;44.972;19.612;2023-10-31T08:34:41;99772.63;;;19.09;37.53
79415;BME280;68864;44.972;19.612;2023-10-31T08:37:08;99765.72;;;19.10;37.62
79415;BME280;68864;44.972;19.612;2023-10-31T08:39:35;99772.81;;;19.18;37.53
79415;BME280;68864;44.972;19.612;2023-10-31T08:42:03;99783.50;;;19.27;37.70
79415;BME280;68864;44.972;19.612;2023-10-31T08:44:31;99768.13;;;19.28;37.05
79415;BME280;68864;44.972;19.612;2023-10-31T08:46:58;99773.31;;;19.29;37.06
79415;BME280;68864;44.972;19.612;2023-10-31T08:49:25;99741.78;;;19.31;36.74
79415;BME280;68864;44.972;19.612;2023-10-31T08:51:52;99754.34;;;19.30;37.33
79415;BME280;68864;44.972;19.612;2023-10-31T08:54:19;99771.09;;;19.37;37.13
79415;BME280;68864;44.972;19.612;2023-10-31T08:56:45;99739.34;;;19.33;37.33
79415;BME280;68864;44.972;19.612;2023-10-31T08:59:14;99772.16;;;19.43;37.06
79415;BME280;68864;44.972;19.612;2023-10-31T09:01:40;99758.38;;;19.45;36.93
79415;BME280;68864;44.972;19.612;2023-10-31T09:04:07;99769.97;;;19.51;36.99
79415;BME280;68864;44.972;19.612;2023-10-31T09:06:34;99775.56;;;19.54;37.34
79415;BME280;68864;44.972;19.612;2023-10-31T09:09:01;99762.84;;;19.46;36.80
79415;BME280;68864;44.972;19.612;2023-10-31T09:11:29;99746.94;;;19.52;36.78
79415;BME280;68864;44.972;19.612;2023-10-31T09:13:56;99750.00;;;19.58;36.82
79415;BME280;68864;44.972;19.612;2023-10-31T09:16:24;99728.53;;;19.60;36.99
79415;BME280;68864;44.972;19.612;2023-10-31T09:18:50;99713.16;;;19.45;37.22
79415;BME280;68864;44.972;19.612;2023-10-31T09:21:17;99725.34;;;19.42;37.30
79415;BME280;68864;44.972;19.612;2023-10-31T09:23:44;99742.94;;;19.50;37.08
79415;BME280;68864;44.972;19.612;2023-10-31T09:26:11;99724.56;;;19.41;36.85
79415;BME280;68864;44.972;19.612;2023-10-31T09:28:38;99717.75;;;19.55;37.08
79415;BME280;68864;44.972;19.612;2023-10-31T09:31:05;99745.34;;;19.51;37.18
79415;BME280;68864;44.972;19.612;2023-10-31T09:33:33;99732.53;;;19.47;36.99
79415;BME280;68864;44.972;19.612;2023-10-31T09:36:00;99741.28;;;19.52;36.94
79415;BME280;68864;44.972;19.612;2023-10-31T09:38:27;99731.09;;;19.55;36.78
79415;BME280;68864;44.972;19.612;2023-10-31T09:40:54;99722.03;;;19.47;36.90
79415;BME280;68864;44.972;19.612;2023-10-31T09:43:21;99704.59;;;19.49;37.01
79415;BME280;68864;44.972;19.612;2023-10-31T09:45:47;99726.59;;;19.57;37.10
79415;BME280;68864;44.972;19.612;2023-10-31T09:48:15;99730.56;;;19.60;36.95
79415;BME280;68864;44.972;19.612;2023-10-31T09:50:45;99718.34;;;19.63;37.01
79415;BME280;68864;44.972;19.612;2023-10-31T09:53:14;99727.63;;;19.63;37.26
79415;BME280;68864;44.972;19.612;2023-10-31T09:55:42;99715.19;;;19.61;37.05
79415;BME280;68864;44.972;19.612;2023-10-31T09:58:09;99702.91;;;19.67;37.15
79415;BME280;68864;44.972;19.612;2023-10-31T10:00:35;99689.63;;;19.64;37.16
79415;BME280;68864;44.972;19.612;2023-10-31T10:03:03;99681.97;;;19.65;37.58
79415;BME280;68864;44.972;19.612;2023-10-31T10:05:30;99672.31;;;19.62;37.64
79415;BME280;68864;44.972;19.612;2023-10-31T10:07:59;99673.72;;;19.70;37.72
79415;BME280;68864;44.972;19.612;2023-10-31T10:10:26;99659.56;;;19.70;37.57
79415;BME280;68864;44.972;19.612;2023-10-31T10:12:55;99661.59;;;19.70;37.77
79415;BME280;68864;44.972;19.612;2023-10-31T10:15:22;99638.09;;;19.73;37.27
79415;BME280;68864;44.972;19.612;2023-10-31T10:17:49;99637.31;;;19.72;37.45
79415;BME280;68864;44.972;19.612;2023-10-31T10:20:17;99644.56;;;19.73;37.45
79415;BME280;68864;44.972;19.612;2023-10-31T10:22:45;99632.44;;;19.73;37.35
79415;BME280;68864;44.972;19.612;2023-10-31T10:25:14;99634.59;;;19.81;37.29
79415;BME280;68864;44.972;19.612;2023-10-31T10:27:42;99618.69;;;19.88;37.28
79415;BME280;68864;44.972;19.612;2023-10-31T10:30:10;99621.75;;;19.93;37.16
79415;BME280;68864;44.972;19.612;2023-10-31T10:32:37;99616.75;;;19.97;37.32
79415;BME280;68864;44.972;19.612;2023-10-31T10:35:04;99606.09;;;19.89;37.48
79415;BME280;68864;44.972;19.612;2023-10-31T10:37:31;99602.97;;;19.99;37.31
79415;BME280;68864;44.972;19.612;2023-10-31T10:39:58;99597.53;;;20.05;37.59
79415;BME280;68864;44.972;19.612;2023-10-31T10:42:31;99599.00;;;20.09;37.12
79415;BME280;68864;44.972;19.612;2023-10-31T10:45:03;99600.59;;;20.23;37.04
79415;BME280;68864;44.972;19.612;2023-10-31T10:47:31;99592.31;;;20.29;37.38
79415;BME280;68864;44.972;19.612;2023-10-31T10:50:00;99576.59;;;20.28;36.97
79415;BME280;68864;44.972;19.612;2023-10-31T10:52:30;99590.66;;;20.44;37.01
79415;BME280;68864;44.972;19.612;2023-10-31T10:55:04;99600.34;;;20.55;36.92
79415;BME280;68864;44.972;19.612;2023-10-31T10:57:42;99581.88;;;20.63;36.71
79415;BME280;68864;44.972;19.612;2023-10-31T11:00:14;99575.88;;;20.61;36.58
79415;BME280;68864;44.972;19.612;2023-10-31T11:02:42;99576.78;;;20.71;36.73
79415;BME280;68864;44.972;19.612;2023-10-31T11:05:10;99570.16;;;20.87;36.38
79415;BME280;68864;44.972;19.612;2023-10-31T11:07:39;99566.06;;;20.88;36.36
79415;BME280;68864;44.972;19.612;2023-10-31T11:10:08;99568.72;;;21.04;36.19
79415;BME280;68864;44.972;19.612;2023-10-31T11:12:38;99568.03;;;21.13;36.09
79415;BME280;68864;44.972;19.612;2023-10-31T11:15:06;99554.53;;;21.17;36.32
79415;BME280;68864;44.972;19.612;2023-10-31T11:17:36;99570.94;;;21.22;36.18
79415;BME280;68864;44.972;19.612;2023-10-31T11:20:05;99547.22;;;21.28;36.24
79415;BME280;68864;44.972;19.612;2023-10-31T11:22:37;99544.00;;;21.39;35.96
79415;BME280;68864;44.972;19.612;2023-10-31T11:25:07;99538.84;;;21.47;35.77
79415;BME280;68864;44.972;19.612;2023-10-31T11:27:34;99535.88;;;21.50;36.47
79415;BME280;68864;44.972;19.612;2023-10-31T11:30:06;99521.88;;;21.56;36.31
79415;BME280;68864;44.972;19.612;2023-10-31T11:32:33;99522.81;;;21.53;36.59
79415;BME280;68864;44.972;19.612;2023-10-31T11:35:01;99489.63;;;21.62;36.54
79415;BME280;68864;44.972;19.612;2023-10-31T11:37:32;99499.28;;;21.74;36.62
79415;BME280;68864;44.972;19.612;2023-10-31T11:40:16;99484.28;;;21.64;36.25
79415;BME280;68864;44.972;19.612;2023-10-31T11:42:43;99489.50;;;21.75;36.72
79415;BME280;68864;44.972;19.612;2023-10-31T11:45:25;99481.00;;;21.75;36.81
79415;BME280;68864;44.972;19.612;2023-10-31T11:47:52;99484.00;;;21.71;36.99
79415;BME280;68864;44.972;19.612;2023-10-31T11:50:20;99485.25;;;21.70;37.30
79415;BME280;68864;44.972;19.612;2023-10-31T11:52:58;99509.19;;;21.69;36.80
79415;BME280;68864;44.972;19.612;2023-10-31T11:55:25;99492.63;;;21.68;37.34
79415;BME280;68864;44.972;19.612;2023-10-31T11:57:51;99500.97;;;21.62;36.83
79415;BME280;68864;44.972;19.612;2023-10-31T12:00:22;99487.75;;;21.68;36.93
79415;BME280;68864;44.972;19.612;2023-10-31T12:02:59;99493.44;;;21.68;37.17
79415;BME280;68864;44.972;19.612;2023-10-31T12:05:27;99485.41;;;21.67;37.32
79415;BME280;68864;44.972;19.612;2023-10-31T12:07:54;99473.91;;;21.70;37.13
79415;BME280;68864;44.972;19.612;2023-10-31T12:10:24;99455.13;;;21.64;37.89
79415;BME280;68864;44.972;19.612;2023-10-31T12:12:52;99471.22;;;21.67;37.85
79415;BME280;68864;44.972;19.612;2023-10-31T12:15:21;99451.84;;;21.65;37.75
79415;BME280;68864;44.972;19.612;2023-10-31T12:17:48;99419.19;;;21.61;37.67
79415;BME280;68864;44.972;19.612;2023-10-31T12:20:15;99438.06;;;21.55;38.10
79415;BME280;68864;44.972;19.612;2023-10-31T12:22:42;99415.41;;;21.64;37.68
79415;BME280;68864;44.972;19.612;2023-10-31T12:25:10;99419.38;;;21.66;37.87
79415;BME280;68864;44.972;19.612;2023-10-31T12:27:44;99438.28;;;21.69;37.02
79415;BME280;68864;44.972;19.612;2023-10-31T12:30:12;99415.75;;;21.66;36.67
79415;BME280;68864;44.972;19.612;2023-10-31T12:32:41;99411.16;;;21.68;36.83
79415;BME280;68864;44.972;19.612;2023-10-31T12:35:10;99386.44;;;21.60;37.51
79415;BME280;68864;44.972;19.612;2023-10-31T12:37:43;99404.41;;;21.66;37.10
79415;BME280;68864;44.972;19.612;2023-10-31T12:40:10;99429.13;;;21.65;37.18
79415;BME280;68864;44.972;19.612;2023-10-31T12:42:37;99401.25;;;21.64;37.73
79415;BME280;68864;44.972;19.612;2023-10-31T12:45:05;99417.94;;;21.62;37.37
79415;BME280;68864;44.972;19.612;2023-10-31T12:47:33;99407.38;;;21.62;37.54
79415;BME280;68864;44.972;19.612;2023-10-31T12:50:09;99416.03;;;21.59;37.86